Gran Canaria - Aeropuerto en Canarias

latitud = 27° 55' 4''N | longitud = 015° 23' 43''W
32 metros sobre el nivel del mar |

Fecha, hora, temperatura, viento dirección y velocidad, humedad y presión.

  • 23-04-2018 09:00:00 | 16.00°C | Oeste |6.00 km/h | 87.00% | 1012.10 hPa
  • 23-04-2018 08:00:00 | 16.80°C | Noroeste |12.00 km/h | 74.00% | 1011.40 hPa
  • 23-04-2018 07:00:00 | 16.10°C | Norte |10.00 km/h | 74.00% | 1011.10 hPa
  • 23-04-2018 06:00:00 | 16.40°C | Noroeste |15.00 km/h | 78.00% | 1011.00 hPa
  • 23-04-2018 05:00:00 | 15.60°C | Norte |7.00 km/h | 76.00% | 1010.50 hPa
  • 23-04-2018 04:00:00 | 16.30°C | Norte |13.00 km/h | 84.00% | 1010.80 hPa
  • 23-04-2018 03:00:00 | 17.00°C | Norte |8.00 km/h | 72.00% | 1011.30 hPa
  • 23-04-2018 02:00:00 | 16.60°C | Norte |11.00 km/h | 67.00% | 1012.10 hPa
  • 23-04-2018 01:00:00 | 16.70°C | Norte |11.00 km/h | 68.00% | 1012.70 hPa
  • 23-04-2018 00:00:00 | 17.00°C | Noroeste |18.00 km/h | 71.00% | 1012.50 hPa
  • 22-04-2018 23:00:00 | 17.20°C | Norte |13.00 km/h | 75.00% | 1012.10 hPa
  • 22-04-2018 22:00:00 | 17.40°C | Norte |14.00 km/h | 72.00% | 1011.80 hPa
  • 22-04-2018 21:00:00 | 17.90°C | Norte |17.00 km/h | 67.00% | 1011.20 hPa
  • 22-04-2018 20:00:00 | 18.70°C | Norte |15.00 km/h | 69.00% | 1010.60 hPa
  • 22-04-2018 19:00:00 | 18.70°C | Este |7.00 km/h | 79.00% | 1010.40 hPa
  • 22-04-2018 18:00:00 | 18.20°C | Sur |9.00 km/h | 82.00% | 1010.30 hPa
  • 22-04-2018 17:00:00 | 18.40°C | Sudeste |5.00 km/h | 85.00% | 1010.10 hPa
  • 22-04-2018 16:00:00 | 18.70°C | Sudeste |9.00 km/h | 80.00% | 1010.40 hPa
  • 22-04-2018 15:00:00 | 20.10°C | Sur |13.00 km/h | 66.00% | 1010.40 hPa
  • 22-04-2018 14:00:00 | 19.90°C | Sur |14.00 km/h | 67.00% | 1010.60 hPa
  • 22-04-2018 13:00:00 | 20.90°C | Sudoeste |20.00 km/h | 60.00% | 1011.00 hPa
  • 22-04-2018 12:00:00 | 19.40°C | Oeste |5.00 km/h | 68.00% | 1011.20 hPa
  • 22-04-2018 11:00:00 | 20.10°C | Sur |10.00 km/h | 66.00% | 1010.90 hPa
  • 22-04-2018 10:00:00 | 19.50°C | Sudeste |10.00 km/h | 72.00% | 1010.60 hPa